Aviation Digital Data Service (ADDS)

Output produced by METARs form (1849 UTC 29 July 2014)
found at http://www.aviationweather.gov/adds/metars/
 
KPHL 291736Z 2918/3024 32009KT P6SM SCT050 BKN070 
     FM292200 28006KT P6SM SCT050 
     FM301400 26008KT P6SM SCT050